sensor_id;sensor_type;location;lat;lon;timestamp;temperature;humidity
41557;DHT22;27720;51.992;5.890;2023-04-03T00:00:28;6.70;96.70
41557;DHT22;27720;51.992;5.890;2023-04-03T00:02:54;6.70;96.70
41557;DHT22;27720;51.992;5.890;2023-04-03T00:05:20;6.70;96.80
41557;DHT22;27720;51.992;5.890;2023-04-03T00:07:46;6.70;96.70
41557;DHT22;27720;51.992;5.890;2023-04-03T00:10:11;6.70;96.70
41557;DHT22;27720;51.992;5.890;2023-04-03T00:12:37;6.70;96.70
41557;DHT22;27720;51.992;5.890;2023-04-03T00:15:04;6.60;96.80
41557;DHT22;27720;51.992;5.890;2023-04-03T00:17:29;6.60;96.90
41557;DHT22;27720;51.992;5.890;2023-04-03T00:19:55;6.60;96.90
41557;DHT22;27720;51.992;5.890;2023-04-03T00:22:21;6.60;96.80
41557;DHT22;27720;51.992;5.890;2023-04-03T00:24:46;6.60;96.90
41557;DHT22;27720;51.992;5.890;2023-04-03T00:27:12;6.60;96.90
41557;DHT22;27720;51.992;5.890;2023-04-03T00:29:38;6.60;96.90
41557;DHT22;27720;51.992;5.890;2023-04-03T00:32:04;6.50;96.80
41557;DHT22;27720;51.992;5.890;2023-04-03T00:34:30;6.50;96.90
41557;DHT22;27720;51.992;5.890;2023-04-03T00:36:57;6.50;96.90
41557;DHT22;27720;51.992;5.890;2023-04-03T00:39:22;6.50;96.90
41557;DHT22;27720;51.992;5.890;2023-04-03T00:41:48;6.50;96.90
41557;DHT22;27720;51.992;5.890;2023-04-03T00:45:19;6.50;96.90
41557;DHT22;27720;51.992;5.890;2023-04-03T00:47:13;6.50;97.00
41557;DHT22;27720;51.992;5.890;2023-04-03T00:49:40;6.40;97.10
41557;DHT22;27720;51.992;5.890;2023-04-03T00:52:08;6.40;97.00
41557;DHT22;27720;51.992;5.890;2023-04-03T00:54:36;6.40;97.10
41557;DHT22;27720;51.992;5.890;2023-04-03T00:57:03;6.40;97.10
41557;DHT22;27720;51.992;5.890;2023-04-03T00:59:44;6.40;97.20
41557;DHT22;27720;51.992;5.890;2023-04-03T01:02:10;6.40;97.20
41557;DHT22;27720;51.992;5.890;2023-04-03T01:04:39;6.30;97.20
41557;DHT22;27720;51.992;5.890;2023-04-03T01:07:12;6.30;97.10
41557;DHT22;27720;51.992;5.890;2023-04-03T01:09:40;6.30;97.20
41557;DHT22;27720;51.992;5.890;2023-04-03T01:17:40;6.20;97.30
41557;DHT22;27720;51.992;5.890;2023-04-03T01:20:43;6.20;97.40
41557;DHT22;27720;51.992;5.890;2023-04-03T01:23:22;6.20;97.30
41557;DHT22;27720;51.992;5.890;2023-04-03T01:25:54;6.20;97.50
41557;DHT22;27720;51.992;5.890;2023-04-03T01:28:30;6.20;97.50
41557;DHT22;27720;51.992;5.890;2023-04-03T01:31:24;6.20;97.50
41557;DHT22;27720;51.992;5.890;2023-04-03T01:33:52;6.10;97.40
41557;DHT22;27720;51.992;5.890;2023-04-03T01:36:22;6.00;97.60
41557;DHT22;27720;51.992;5.890;2023-04-03T01:38:50;6.10;97.60
41557;DHT22;27720;51.992;5.890;2023-04-03T01:41:16;6.10;97.70
41557;DHT22;27720;51.992;5.890;2023-04-03T01:43:44;6.00;97.60
41557;DHT22;27720;51.992;5.890;2023-04-03T01:46:09;6.10;97.80
41557;DHT22;27720;51.992;5.890;2023-04-03T01:48:35;6.10;97.80
41557;DHT22;27720;51.992;5.890;2023-04-03T01:51:01;6.00;97.80
41557;DHT22;27720;51.992;5.890;2023-04-03T01:53:27;6.00;97.80
41557;DHT22;27720;51.992;5.890;2023-04-03T01:55:53;6.00;97.90
41557;DHT22;27720;51.992;5.890;2023-04-03T01:58:19;6.00;97.90
41557;DHT22;27720;51.992;5.890;2023-04-03T02:00:46;5.90;97.90
41557;DHT22;27720;51.992;5.890;2023-04-03T02:03:12;5.90;98.10
41557;DHT22;27720;51.992;5.890;2023-04-03T02:05:38;5.90;98.10
41557;DHT22;27720;51.992;5.890;2023-04-03T02:08:04;5.90;98.10
41557;DHT22;27720;51.992;5.890;2023-04-03T02:10:31;5.90;98.10
41557;DHT22;27720;51.992;5.890;2023-04-03T02:12:57;5.90;98.10
41557;DHT22;27720;51.992;5.890;2023-04-03T02:15:24;5.80;98.20
41557;DHT22;27720;51.992;5.890;2023-04-03T02:17:50;5.80;98.30
41557;DHT22;27720;51.992;5.890;2023-04-03T02:20:16;5.80;98.40
41557;DHT22;27720;51.992;5.890;2023-04-03T02:22:43;5.80;98.30
41557;DHT22;27720;51.992;5.890;2023-04-03T02:25:09;5.70;98.40
41557;DHT22;27720;51.992;5.890;2023-04-03T02:27:36;5.70;98.50
41557;DHT22;27720;51.992;5.890;2023-04-03T02:30:03;5.80;98.50
41557;DHT22;27720;51.992;5.890;2023-04-03T02:32:29;5.70;98.50
41557;DHT22;27720;51.992;5.890;2023-04-03T02:34:55;5.70;98.60
41557;DHT22;27720;51.992;5.890;2023-04-03T02:37:21;5.70;98.60
41557;DHT22;27720;51.992;5.890;2023-04-03T02:39:48;5.80;98.60
41557;DHT22;27720;51.992;5.890;2023-04-03T02:42:14;5.70;98.60
41557;DHT22;27720;51.992;5.890;2023-04-03T02:44:40;5.70;98.70
41557;DHT22;27720;51.992;5.890;2023-04-03T02:47:06;5.70;98.60
41557;DHT22;27720;51.992;5.890;2023-04-03T02:49:32;5.70;98.70
41557;DHT22;27720;51.992;5.890;2023-04-03T02:51:58;5.70;98.80
41557;DHT22;27720;51.992;5.890;2023-04-03T02:54:24;5.70;98.80
41557;DHT22;27720;51.992;5.890;2023-04-03T02:56:55;5.60;98.80
41557;DHT22;27720;51.992;5.890;2023-04-03T02:59:21;5.70;98.90
41557;DHT22;27720;51.992;5.890;2023-04-03T03:01:47;5.60;98.90
41557;DHT22;27720;51.992;5.890;2023-04-03T03:04:13;5.60;98.90
41557;DHT22;27720;51.992;5.890;2023-04-03T03:06:38;5.60;98.90
41557;DHT22;27720;51.992;5.890;2023-04-03T03:09:04;5.60;98.90
41557;DHT22;27720;51.992;5.890;2023-04-03T03:11:31;5.60;99.00
41557;DHT22;27720;51.992;5.890;2023-04-03T03:13:57;5.60;99.00
41557;DHT22;27720;51.992;5.890;2023-04-03T03:16:24;5.60;99.10
41557;DHT22;27720;51.992;5.890;2023-04-03T03:18:50;5.50;99.10
41557;DHT22;27720;51.992;5.890;2023-04-03T03:21:16;5.50;99.20
41557;DHT22;27720;51.992;5.890;2023-04-03T03:23:42;5.50;99.20
41557;DHT22;27720;51.992;5.890;2023-04-03T03:26:09;5.50;99.20
41557;DHT22;27720;51.992;5.890;2023-04-03T03:28:36;5.50;99.20
41557;DHT22;27720;51.992;5.890;2023-04-03T03:31:03;5.40;99.20
41557;DHT22;27720;51.992;5.890;2023-04-03T03:33:31;5.40;99.60
41557;DHT22;27720;51.992;5.890;2023-04-03T03:35:57;5.40;99.30
41557;DHT22;27720;51.992;5.890;2023-04-03T03:38:23;5.40;99.30
41557;DHT22;27720;51.992;5.890;2023-04-03T03:40:50;5.40;99.30
41557;DHT22;27720;51.992;5.890;2023-04-03T03:43:18;5.40;99.40
41557;DHT22;27720;51.992;5.890;2023-04-03T03:45:50;5.40;99.30
41557;DHT22;27720;51.992;5.890;2023-04-03T03:48:17;5.40;99.30
41557;DHT22;27720;51.992;5.890;2023-04-03T03:50:43;5.30;99.40
41557;DHT22;27720;51.992;5.890;2023-04-03T03:53:09;5.30;99.40
41557;DHT22;27720;51.992;5.890;2023-04-03T03:55:35;5.30;99.40
41557;DHT22;27720;51.992;5.890;2023-04-03T03:58:01;5.20;99.40
41557;DHT22;27720;51.992;5.890;2023-04-03T04:00:30;5.20;99.50
41557;DHT22;27720;51.992;5.890;2023-04-03T04:02:57;5.20;99.60
41557;DHT22;27720;51.992;5.890;2023-04-03T04:05:24;5.20;99.50
41557;DHT22;27720;51.992;5.890;2023-04-03T04:07:51;5.20;99.50
41557;DHT22;27720;51.992;5.890;2023-04-03T04:10:17;5.20;99.60
41557;DHT22;27720;51.992;5.890;2023-04-03T04:12:44;5.20;99.60
41557;DHT22;27720;51.992;5.890;2023-04-03T04:15:11;5.20;99.60
41557;DHT22;27720;51.992;5.890;2023-04-03T04:17:37;5.10;99.60
41557;DHT22;27720;51.992;5.890;2023-04-03T04:20:06;5.10;99.70
41557;DHT22;27720;51.992;5.890;2023-04-03T04:22:32;5.00;99.70
41557;DHT22;27720;51.992;5.890;2023-04-03T04:24:58;5.10;99.80
41557;DHT22;27720;51.992;5.890;2023-04-03T04:27:25;5.10;99.80
41557;DHT22;27720;51.992;5.890;2023-04-03T04:29:50;5.00;99.80
41557;DHT22;27720;51.992;5.890;2023-04-03T04:32:17;5.00;99.80
41557;DHT22;27720;51.992;5.890;2023-04-03T04:34:44;5.00;99.80
41557;DHT22;27720;51.992;5.890;2023-04-03T04:37:10;4.90;99.80
41557;DHT22;27720;51.992;5.890;2023-04-03T04:39:36;4.90;99.90
41557;DHT22;27720;51.992;5.890;2023-04-03T04:42:02;4.90;99.90
41557;DHT22;27720;51.992;5.890;2023-04-03T04:44:30;4.90;99.90
41557;DHT22;27720;51.992;5.890;2023-04-03T04:46:56;4.90;99.90
41557;DHT22;27720;51.992;5.890;2023-04-03T04:49:25;4.90;99.90
41557;DHT22;27720;51.992;5.890;2023-04-03T04:51:50;4.90;99.90
41557;DHT22;27720;51.992;5.890;2023-04-03T04:54:18;4.90;99.90
41557;DHT22;27720;51.992;5.890;2023-04-03T04:56:46;4.80;99.90
41557;DHT22;27720;51.992;5.890;2023-04-03T04:59:12;4.80;99.90
41557;DHT22;27720;51.992;5.890;2023-04-03T05:01:38;4.80;99.90
41557;DHT22;27720;51.992;5.890;2023-04-03T05:04:08;4.80;99.90
41557;DHT22;27720;51.992;5.890;2023-04-03T05:06:35;4.80;99.90
41557;DHT22;27720;51.992;5.890;2023-04-03T05:09:04;4.80;99.90
41557;DHT22;27720;51.992;5.890;2023-04-03T05:11:31;4.70;99.90
41557;DHT22;27720;51.992;5.890;2023-04-03T05:13:57;4.70;99.90
41557;DHT22;27720;51.992;5.890;2023-04-03T05:16:24;4.70;99.90
41557;DHT22;27720;51.992;5.890;2023-04-03T05:18:51;4.60;99.90
41557;DHT22;27720;51.992;5.890;2023-04-03T05:21:20;4.60;99.90
41557;DHT22;27720;51.992;5.890;2023-04-03T05:23:49;4.60;99.90
41557;DHT22;27720;51.992;5.890;2023-04-03T05:26:15;4.50;99.90
41557;DHT22;27720;51.992;5.890;2023-04-03T05:28:43;4.50;99.90
41557;DHT22;27720;51.992;5.890;2023-04-03T05:31:10;4.50;99.90
41557;DHT22;27720;51.992;5.890;2023-04-03T05:33:36;4.50;99.90
41557;DHT22;27720;51.992;5.890;2023-04-03T05:36:05;4.40;99.90
41557;DHT22;27720;51.992;5.890;2023-04-03T05:38:33;4.40;99.90
41557;DHT22;27720;51.992;5.890;2023-04-03T05:40:59;4.40;99.90
41557;DHT22;27720;51.992;5.890;2023-04-03T05:43:25;4.40;99.90
41557;DHT22;27720;51.992;5.890;2023-04-03T05:45:52;4.40;99.90
41557;DHT22;27720;51.992;5.890;2023-04-03T05:48:22;4.40;99.90
41557;DHT22;27720;51.992;5.890;2023-04-03T05:50:48;4.40;99.90
41557;DHT22;27720;51.992;5.890;2023-04-03T05:53:27;4.40;99.90
41557;DHT22;27720;51.992;5.890;2023-04-03T05:55:54;4.40;99.90
41557;DHT22;27720;51.992;5.890;2023-04-03T05:58:21;4.40;99.90
41557;DHT22;27720;51.992;5.890;2023-04-03T06:00:48;4.40;99.90
41557;DHT22;27720;51.992;5.890;2023-04-03T06:03:15;4.30;99.90
41557;DHT22;27720;51.992;5.890;2023-04-03T06:05:42;4.40;99.90
41557;DHT22;27720;51.992;5.890;2023-04-03T06:08:10;4.40;99.90
41557;DHT22;27720;51.992;5.890;2023-04-03T06:10:36;4.40;99.90
41557;DHT22;27720;51.992;5.890;2023-04-03T06:13:02;4.40;99.90
41557;DHT22;27720;51.992;5.890;2023-04-03T06:15:28;4.40;99.90
41557;DHT22;27720;51.992;5.890;2023-04-03T06:17:54;4.40;99.90
41557;DHT22;27720;51.992;5.890;2023-04-03T06:20:20;4.50;99.90
41557;DHT22;27720;51.992;5.890;2023-04-03T06:22:48;4.50;99.90
41557;DHT22;27720;51.992;5.890;2023-04-03T06:25:16;4.50;99.90
41557;DHT22;27720;51.992;5.890;2023-04-03T06:27:44;4.50;99.90
41557;DHT22;27720;51.992;5.890;2023-04-03T06:30:10;4.50;99.80
41557;DHT22;27720;51.992;5.890;2023-04-03T06:32:37;4.50;99.70
41557;DHT22;27720;51.992;5.890;2023-04-03T06:35:04;4.60;99.50
41557;DHT22;27720;51.992;5.890;2023-04-03T06:37:30;4.50;99.50
41557;DHT22;27720;51.992;5.890;2023-04-03T06:39:56;4.60;99.50
41557;DHT22;27720;51.992;5.890;2023-04-03T06:42:22;4.70;99.20
41557;DHT22;27720;51.992;5.890;2023-04-03T06:44:58;4.70;99.20
41557;DHT22;27720;51.992;5.890;2023-04-03T06:47:23;4.80;99.10
41557;DHT22;27720;51.992;5.890;2023-04-03T06:49:49;4.70;99.10
41557;DHT22;27720;51.992;5.890;2023-04-03T06:52:15;4.80;98.60
41557;DHT22;27720;51.992;5.890;2023-04-03T06:54:41;4.90;98.70
41557;DHT22;27720;51.992;5.890;2023-04-03T06:57:07;4.90;98.50
41557;DHT22;27720;51.992;5.890;2023-04-03T06:59:35;5.10;98.70
41557;DHT22;27720;51.992;5.890;2023-04-03T07:02:02;5.10;98.60
41557;DHT22;27720;51.992;5.890;2023-04-03T07:04:28;5.20;98.30
41557;DHT22;27720;51.992;5.890;2023-04-03T07:06:53;5.20;98.20
41557;DHT22;27720;51.992;5.890;2023-04-03T07:09:19;5.30;98.10
41557;DHT22;27720;51.992;5.890;2023-04-03T07:11:45;5.40;98.10
41557;DHT22;27720;51.992;5.890;2023-04-03T07:14:11;5.50;97.80
41557;DHT22;27720;51.992;5.890;2023-04-03T07:16:36;5.60;97.30
41557;DHT22;27720;51.992;5.890;2023-04-03T07:19:05;5.60;97.00
41557;DHT22;27720;51.992;5.890;2023-04-03T07:21:31;5.60;96.80
41557;DHT22;27720;51.992;5.890;2023-04-03T07:23:57;5.60;96.80
41557;DHT22;27720;51.992;5.890;2023-04-03T07:26:23;5.80;96.30
41557;DHT22;27720;51.992;5.890;2023-04-03T07:28:55;5.80;95.90
41557;DHT22;27720;51.992;5.890;2023-04-03T07:31:24;5.90;95.80
41557;DHT22;27720;51.992;5.890;2023-04-03T07:33:50;6.00;96.00
41557;DHT22;27720;51.992;5.890;2023-04-03T07:36:18;6.10;95.20
41557;DHT22;27720;51.992;5.890;2023-04-03T07:38:44;6.20;95.00
41557;DHT22;27720;51.992;5.890;2023-04-03T07:41:16;6.20;94.50
41557;DHT22;27720;51.992;5.890;2023-04-03T07:43:43;6.30;94.00
41557;DHT22;27720;51.992;5.890;2023-04-03T07:46:09;6.40;93.70
41557;DHT22;27720;51.992;5.890;2023-04-03T07:48:35;6.50;93.70
41557;DHT22;27720;51.992;5.890;2023-04-03T07:51:01;6.60;92.80
41557;DHT22;27720;51.992;5.890;2023-04-03T07:53:28;6.60;93.00
41557;DHT22;27720;51.992;5.890;2023-04-03T07:55:54;6.80;92.60
41557;DHT22;27720;51.992;5.890;2023-04-03T07:58:21;6.90;92.60
41557;DHT22;27720;51.992;5.890;2023-04-03T08:00:47;7.00;91.40
41557;DHT22;27720;51.992;5.890;2023-04-03T08:03:14;7.10;91.60
41557;DHT22;27720;51.992;5.890;2023-04-03T08:05:45;7.20;91.50
41557;DHT22;27720;51.992;5.890;2023-04-03T08:08:13;7.40;91.40
41557;DHT22;27720;51.992;5.890;2023-04-03T08:10:39;7.50;90.10
41557;DHT22;27720;51.992;5.890;2023-04-03T08:13:06;7.60;90.10
41557;DHT22;27720;51.992;5.890;2023-04-03T08:15:32;7.70;90.30
41557;DHT22;27720;51.992;5.890;2023-04-03T08:17:59;7.80;89.10
41557;DHT22;27720;51.992;5.890;2023-04-03T08:20:26;8.00;89.00
41557;DHT22;27720;51.992;5.890;2023-04-03T08:22:53;8.10;86.90
41557;DHT22;27720;51.992;5.890;2023-04-03T08:25:18;8.10;85.50
41557;DHT22;27720;51.992;5.890;2023-04-03T08:27:44;8.20;83.80
41557;DHT22;27720;51.992;5.890;2023-04-03T08:30:11;8.30;83.00
41557;DHT22;27720;51.992;5.890;2023-04-03T08:32:37;8.40;82.20
41557;DHT22;27720;51.992;5.890;2023-04-03T08:35:06;8.50;80.80
41557;DHT22;27720;51.992;5.890;2023-04-03T08:37:35;8.60;80.40
41557;DHT22;27720;51.992;5.890;2023-04-03T08:40:03;8.70;80.20
41557;DHT22;27720;51.992;5.890;2023-04-03T08:45:12;8.90;77.60
41557;DHT22;27720;51.992;5.890;2023-04-03T08:47:43;9.20;77.80
41557;DHT22;27720;51.992;5.890;2023-04-03T08:50:15;9.20;75.40
41557;DHT22;27720;51.992;5.890;2023-04-03T08:52:45;9.30;74.10
41557;DHT22;27720;51.992;5.890;2023-04-03T08:55:27;9.30;72.40
41557;DHT22;27720;51.992;5.890;2023-04-03T09:01:02;9.50;69.20
41557;DHT22;27720;51.992;5.890;2023-04-03T09:03:34;9.60;66.40
41557;DHT22;27720;51.992;5.890;2023-04-03T09:06:05;9.60;62.80
41557;DHT22;27720;51.992;5.890;2023-04-03T09:11:26;9.70;62.40
41557;DHT22;27720;51.992;5.890;2023-04-03T09:17:00;10.10;63.00
41557;DHT22;27720;51.992;5.890;2023-04-03T09:22:17;10.40;61.20
41557;DHT22;27720;51.992;5.890;2023-04-03T09:24:45;10.50;60.70
41557;DHT22;27720;51.992;5.890;2023-04-03T09:27:12;10.60;58.80
41557;DHT22;27720;51.992;5.890;2023-04-03T09:29:43;10.70;59.90
41557;DHT22;27720;51.992;5.890;2023-04-03T09:32:31;10.80;56.50
41557;DHT22;27720;51.992;5.890;2023-04-03T09:35:01;10.90;58.10
41557;DHT22;27720;51.992;5.890;2023-04-03T09:37:42;11.10;57.80
41557;DHT22;27720;51.992;5.890;2023-04-03T09:42:54;11.20;55.20
41557;DHT22;27720;51.992;5.890;2023-04-03T09:45:30;11.20;54.50
41557;DHT22;27720;51.992;5.890;2023-04-03T09:50:57;11.40;55.30
41557;DHT22;27720;51.992;5.890;2023-04-03T09:53:42;11.50;55.30
41557;DHT22;27720;51.992;5.890;2023-04-03T09:58:45;11.50;51.00
41557;DHT22;27720;51.992;5.890;2023-04-03T10:04:13;11.50;50.70
41557;DHT22;27720;51.992;5.890;2023-04-03T10:06:45;11.50;49.20
41557;DHT22;27720;51.992;5.890;2023-04-03T10:09:25;11.40;48.80
41557;DHT22;27720;51.992;5.890;2023-04-03T10:12:03;11.50;50.80
41557;DHT22;27720;51.992;5.890;2023-04-03T10:14:34;11.80;51.80
41557;DHT22;27720;51.992;5.890;2023-04-03T10:20:14;11.80;50.30
41557;DHT22;27720;51.992;5.890;2023-04-03T10:25:43;12.10;51.50
41557;DHT22;27720;51.992;5.890;2023-04-03T10:34:19;12.40;51.00
41557;DHT22;27720;51.992;5.890;2023-04-03T10:39:43;12.50;50.20
41557;DHT22;27720;51.992;5.890;2023-04-03T10:43:04;12.50;49.70
41557;DHT22;27720;51.992;5.890;2023-04-03T10:50:52;12.90;51.60
41557;DHT22;27720;51.992;5.890;2023-04-03T10:53:39;13.10;50.90
41557;DHT22;27720;51.992;5.890;2023-04-03T11:01:41;13.20;50.20
41557;DHT22;27720;51.992;5.890;2023-04-03T11:04:10;13.30;50.60
41557;DHT22;27720;51.992;5.890;2023-04-03T11:06:48;13.40;49.60
41557;DHT22;27720;51.992;5.890;2023-04-03T11:09:27;13.50;50.00
41557;DHT22;27720;51.992;5.890;2023-04-03T11:12:04;13.60;49.10
41557;DHT22;27720;51.992;5.890;2023-04-03T11:14:36;13.60;48.90
41557;DHT22;27720;51.992;5.890;2023-04-03T11:22:33;13.80;47.90
41557;DHT22;27720;51.992;5.890;2023-04-03T11:28:02;14.00;47.70
41557;DHT22;27720;51.992;5.890;2023-04-03T11:30:33;14.00;46.70
41557;DHT22;27720;51.992;5.890;2023-04-03T11:33:37;14.00;46.40
41557;DHT22;27720;51.992;5.890;2023-04-03T11:36:27;14.20;47.60
41557;DHT22;27720;51.992;5.890;2023-04-03T11:39:00;14.30;47.00
41557;DHT22;27720;51.992;5.890;2023-04-03T11:41:31;14.20;45.30
41557;DHT22;27720;51.992;5.890;2023-04-03T11:47:00;14.10;46.00
41557;DHT22;27720;51.992;5.890;2023-04-03T11:50:04;14.20;45.90
41557;DHT22;27720;51.992;5.890;2023-04-03T11:58:10;14.40;45.70
41557;DHT22;27720;51.992;5.890;2023-04-03T12:00:50;14.40;45.00
41557;DHT22;27720;51.992;5.890;2023-04-03T12:16:27;14.60;45.50
41557;DHT22;27720;51.992;5.890;2023-04-03T12:32:26;14.80;45.40
41557;DHT22;27720;51.992;5.890;2023-04-03T12:35:21;15.00;46.30
41557;DHT22;27720;51.992;5.890;2023-04-03T12:51:34;15.70;45.90
41557;DHT22;27720;51.992;5.890;2023-04-03T12:54:15;15.70;45.60
41557;DHT22;27720;51.992;5.890;2023-04-03T12:56:41;15.70;44.60
41557;DHT22;27720;51.992;5.890;2023-04-03T12:59:15;15.70;44.70
41557;DHT22;27720;51.992;5.890;2023-04-03T13:01:42;15.90;45.20
41557;DHT22;27720;51.992;5.890;2023-04-03T13:04:11;15.90;44.10
41557;DHT22;27720;51.992;5.890;2023-04-03T13:06:42;16.00;44.90
41557;DHT22;27720;51.992;5.890;2023-04-03T13:09:23;16.10;45.10
41557;DHT22;27720;51.992;5.890;2023-04-03T13:11:53;16.10;44.20
41557;DHT22;27720;51.992;5.890;2023-04-03T13:14:23;16.10;44.90
41557;DHT22;27720;51.992;5.890;2023-04-03T13:17:26;16.20;45.40
41557;DHT22;27720;51.992;5.890;2023-04-03T13:19:45;16.30;44.70
41557;DHT22;27720;51.992;5.890;2023-04-03T13:22:33;16.20;43.10
41557;DHT22;27720;51.992;5.890;2023-04-03T13:25:07;15.90;42.60
41557;DHT22;27720;51.992;5.890;2023-04-03T13:27:35;15.90;43.80
41557;DHT22;27720;51.992;5.890;2023-04-03T13:30:02;16.00;43.40
41557;DHT22;27720;51.992;5.890;2023-04-03T13:32:30;16.00;43.40
41557;DHT22;27720;51.992;5.890;2023-04-03T13:34:58;16.00;43.40
41557;DHT22;27720;51.992;5.890;2023-04-03T13:37:29;16.00;44.10
41557;DHT22;27720;51.992;5.890;2023-04-03T13:42:36;16.40;43.90
41557;DHT22;27720;51.992;5.890;2023-04-03T13:47:55;16.50;44.90
41557;DHT22;27720;51.992;5.890;2023-04-03T13:50:32;16.70;44.80
41557;DHT22;27720;51.992;5.890;2023-04-03T13:53:12;16.80;44.50
41557;DHT22;27720;51.992;5.890;2023-04-03T13:55:55;16.80;44.30
41557;DHT22;27720;51.992;5.890;2023-04-03T13:58:28;16.80;45.00
41557;DHT22;27720;51.992;5.890;2023-04-03T14:01:17;16.80;44.50
41557;DHT22;27720;51.992;5.890;2023-04-03T14:03:55;17.00;44.80
41557;DHT22;27720;51.992;5.890;2023-04-03T14:06:21;16.90;44.20
41557;DHT22;27720;51.992;5.890;2023-04-03T14:08:47;16.80;44.20
41557;DHT22;27720;51.992;5.890;2023-04-03T14:11:24;16.90;44.50
41557;DHT22;27720;51.992;5.890;2023-04-03T14:13:53;17.00;45.00
41557;DHT22;27720;51.992;5.890;2023-04-03T14:16:21;17.20;45.30
41557;DHT22;27720;51.992;5.890;2023-04-03T14:18:48;17.40;45.00
41557;DHT22;27720;51.992;5.890;2023-04-03T14:21:17;17.40;45.00
41557;DHT22;27720;51.992;5.890;2023-04-03T14:23:44;17.30;44.10
41557;DHT22;27720;51.992;5.890;2023-04-03T14:26:13;17.20;43.50
41557;DHT22;27720;51.992;5.890;2023-04-03T14:28:39;17.10;43.90
41557;DHT22;27720;51.992;5.890;2023-04-03T14:31:10;17.10;44.10
41557;DHT22;27720;51.992;5.890;2023-04-03T14:33:43;17.00;43.80
41557;DHT22;27720;51.992;5.890;2023-04-03T14:36:15;17.10;44.60
41557;DHT22;27720;51.992;5.890;2023-04-03T14:38:44;17.00;44.10
41557;DHT22;27720;51.992;5.890;2023-04-03T14:41:13;17.10;44.70
41557;DHT22;27720;51.992;5.890;2023-04-03T14:43:40;17.10;44.10
41557;DHT22;27720;51.992;5.890;2023-04-03T14:46:16;16.90;44.10
41557;DHT22;27720;51.992;5.890;2023-04-03T14:48:42;16.80;43.90
41557;DHT22;27720;51.992;5.890;2023-04-03T14:51:12;16.60;44.50
41557;DHT22;27720;51.992;5.890;2023-04-03T14:53:39;16.70;44.80
41557;DHT22;27720;51.992;5.890;2023-04-03T14:56:18;16.40;44.60
41557;DHT22;27720;51.992;5.890;2023-04-03T14:58:47;16.40;45.10
41557;DHT22;27720;51.992;5.890;2023-04-03T15:01:16;16.30;45.50
41557;DHT22;27720;51.992;5.890;2023-04-03T15:03:42;16.30;45.50
41557;DHT22;27720;51.992;5.890;2023-04-03T15:06:10;16.10;45.70
41557;DHT22;27720;51.992;5.890;2023-04-03T15:08:37;16.00;45.40
41557;DHT22;27720;51.992;5.890;2023-04-03T15:11:03;16.00;45.80
41557;DHT22;27720;51.992;5.890;2023-04-03T15:13:28;15.80;46.30
41557;DHT22;27720;51.992;5.890;2023-04-03T15:15:54;15.90;46.70
41557;DHT22;27720;51.992;5.890;2023-04-03T15:18:23;15.80;46.40
41557;DHT22;27720;51.992;5.890;2023-04-03T15:20:52;15.60;46.60
41557;DHT22;27720;51.992;5.890;2023-04-03T15:23:18;15.50;47.20
41557;DHT22;27720;51.992;5.890;2023-04-03T15:25:48;15.30;46.40
41557;DHT22;27720;51.992;5.890;2023-04-03T15:28:28;15.20;46.90
41557;DHT22;27720;51.992;5.890;2023-04-03T15:30:54;15.00;47.30
41557;DHT22;27720;51.992;5.890;2023-04-03T15:33:20;14.90;47.30
41557;DHT22;27720;51.992;5.890;2023-04-03T15:35:51;14.80;47.30
41557;DHT22;27720;51.992;5.890;2023-04-03T15:38:17;14.70;47.60
41557;DHT22;27720;51.992;5.890;2023-04-03T15:40:43;14.60;48.00
41557;DHT22;27720;51.992;5.890;2023-04-03T15:43:09;14.50;47.80
41557;DHT22;27720;51.992;5.890;2023-04-03T15:45:36;14.30;48.10
41557;DHT22;27720;51.992;5.890;2023-04-03T15:48:04;14.20;48.50
41557;DHT22;27720;51.992;5.890;2023-04-03T15:50:31;14.10;49.50
41557;DHT22;27720;51.992;5.890;2023-04-03T15:52:58;14.00;49.00
41557;DHT22;27720;51.992;5.890;2023-04-03T15:55:29;13.90;48.80
41557;DHT22;27720;51.992;5.890;2023-04-03T15:57:56;13.70;48.80
41557;DHT22;27720;51.992;5.890;2023-04-03T16:00:22;13.60;49.10
41557;DHT22;27720;51.992;5.890;2023-04-03T16:02:54;13.40;49.20
41557;DHT22;27720;51.992;5.890;2023-04-03T16:05:21;13.30;48.80
41557;DHT22;27720;51.992;5.890;2023-04-03T16:07:47;13.10;49.30
41557;DHT22;27720;51.992;5.890;2023-04-03T16:10:14;13.10;50.00
41557;DHT22;27720;51.992;5.890;2023-04-03T16:12:44;13.10;50.40
41557;DHT22;27720;51.992;5.890;2023-04-03T16:15:11;13.20;50.60
41557;DHT22;27720;51.992;5.890;2023-04-03T16:17:37;13.10;50.40
41557;DHT22;27720;51.992;5.890;2023-04-03T16:20:05;13.10;50.50
41557;DHT22;27720;51.992;5.890;2023-04-03T16:22:34;13.00;50.70
41557;DHT22;27720;51.992;5.890;2023-04-03T16:25:01;12.90;51.10
41557;DHT22;27720;51.992;5.890;2023-04-03T16:27:29;12.80;50.80
41557;DHT22;27720;51.992;5.890;2023-04-03T16:29:59;12.70;50.90
41557;DHT22;27720;51.992;5.890;2023-04-03T16:32:27;12.60;50.70
41557;DHT22;27720;51.992;5.890;2023-04-03T16:34:54;12.40;50.40
41557;DHT22;27720;51.992;5.890;2023-04-03T16:37:21;12.30;50.80
41557;DHT22;27720;51.992;5.890;2023-04-03T16:39:46;12.10;50.90
41557;DHT22;27720;51.992;5.890;2023-04-03T16:42:12;12.10;51.40
41557;DHT22;27720;51.992;5.890;2023-04-03T16:44:38;12.00;51.60
41557;DHT22;27720;51.992;5.890;2023-04-03T16:47:05;12.00;51.70
41557;DHT22;27720;51.992;5.890;2023-04-03T16:49:31;11.90;51.90
41557;DHT22;27720;51.992;5.890;2023-04-03T16:52:03;11.90;52.40
41557;DHT22;27720;51.992;5.890;2023-04-03T16:54:30;11.90;52.70
41557;DHT22;27720;51.992;5.890;2023-04-03T16:56:58;11.90;52.70
41557;DHT22;27720;51.992;5.890;2023-04-03T16:59:24;12.00;52.80
41557;DHT22;27720;51.992;5.890;2023-04-03T17:01:50;11.90;52.90
41557;DHT22;27720;51.992;5.890;2023-04-03T17:04:16;11.90;53.10
41557;DHT22;27720;51.992;5.890;2023-04-03T17:06:41;12.00;53.30
41557;DHT22;27720;51.992;5.890;2023-04-03T17:09:08;12.00;53.30
41557;DHT22;27720;51.992;5.890;2023-04-03T17:11:35;12.00;53.40
41557;DHT22;27720;51.992;5.890;2023-04-03T17:14:01;12.00;54.30
41557;DHT22;27720;51.992;5.890;2023-04-03T17:16:28;11.90;53.30
41557;DHT22;27720;51.992;5.890;2023-04-03T17:18:55;11.80;53.30
41557;DHT22;27720;51.992;5.890;2023-04-03T17:21:21;11.70;53.30
41557;DHT22;27720;51.992;5.890;2023-04-03T17:23:51;11.60;53.50
41557;DHT22;27720;51.992;5.890;2023-04-03T17:26:19;11.70;54.70
41557;DHT22;27720;51.992;5.890;2023-04-03T17:28:46;11.70;54.40
41557;DHT22;27720;51.992;5.890;2023-04-03T17:31:12;11.60;54.30
41557;DHT22;27720;51.992;5.890;2023-04-03T17:33:37;11.60;54.50
41557;DHT22;27720;51.992;5.890;2023-04-03T17:36:03;11.60;54.60
41557;DHT22;27720;51.992;5.890;2023-04-03T17:38:30;11.60;54.40
41557;DHT22;27720;51.992;5.890;2023-04-03T17:40:57;11.50;54.30
41557;DHT22;27720;51.992;5.890;2023-04-03T17:43:24;11.40;54.50
41557;DHT22;27720;51.992;5.890;2023-04-03T17:45:50;11.30;54.50
41557;DHT22;27720;51.992;5.890;2023-04-03T17:48:15;11.30;54.90
41557;DHT22;27720;51.992;5.890;2023-04-03T17:50:44;11.30;54.90